Time;durP1;ratioP1;P1;durP2;ratioP2;P2;SDS_P1;SDS_P2;PMS_P1;PMS_P2;Temp;Humidity;BMP_temperature;BMP_pressure;BME280_temperature;BME280_humidity;BME280_pressure;Samples;Min_cycle;Max_cycle;Signal;HPM_P1;HPM_P2
2022/02/04 00:06:16;;;;;;;48.52;25.20;;;;;;;15.86;39.96;99553.51;1730721;82;20973;-63
2022/02/04 00:24:34;;;;;;;59.38;28.35;;;;;;;15.63;39.92;99552.52;1737702;82;22185;-61
2022/02/04 00:27:08;;;;;;;50.60;25.88;;;;;;;15.44;40.33;99553.20;1737441;82;21155;-61
2022/02/04 00:29:36;;;;;;;43.90;22.75;;;;;;;15.41;40.13;99558.12;1737462;82;21480;-61
2022/02/04 00:32:04;;;;;;;36.38;19.70;;;;;;;15.77;39.59;99552.58;1736420;82;20963;-64
2022/02/04 00:34:34;;;;;;;28.90;17.05;;;;;;;15.88;39.36;99550.14;1737392;82;20950;-61
2022/02/04 00:39:34;;;;;;;25.52;14.43;;;;;;;15.87;39.02;99544.58;1738183;82;21137;-60
2022/02/04 00:42:00;;;;;;;30.90;17.07;;;;;;;15.88;38.99;99544.37;1736347;82;20938;-62
2022/02/04 00:44:27;;;;;;;29.42;16.32;;;;;;;16.09;38.59;99546.83;1737397;82;22273;-61
2022/02/04 00:47:03;;;;;;;23.98;13.18;;;;;;;15.86;38.88;99546.42;1737250;82;21069;-62
2022/02/04 00:49:43;;;;;;;23.42;13.10;;;;;;;15.77;38.86;99547.31;1736461;82;21029;-61
2022/02/04 00:52:03;;;;;;;17.90;11.28;;;;;;;15.95;38.53;99550.80;1737398;82;21165;-61
2022/02/04 00:57:15;;;;;;;19.67;11.73;;;;;;;15.93;38.45;99551.02;1737783;82;20975;-60
2022/02/04 01:25:51;;;;;;;18.35;11.57;;;;;;;15.79;38.71;99549.70;1738917;82;21164;-61
2022/02/04 01:27:07;;;;;;;18.37;10.23;;;;;;;15.80;38.45;99561.83;1737560;82;21468;-59
2022/02/04 01:29:42;;;;;;;16.97;10.45;;;;;;;15.75;38.58;99565.66;1741366;82;21128;-60
2022/02/04 01:32:05;;;;;;;17.45;10.40;;;;;;;15.60;38.83;99563.48;1739053;82;22029;-61
2022/02/04 01:34:32;;;;;;;19.82;11.83;;;;;;;15.46;39.00;99570.85;1741308;82;20981;-60
2022/02/04 01:36:59;;;;;;;17.02;10.98;;;;;;;15.50;38.99;99568.05;1741510;81;21033;-62
2022/02/04 01:39:26;;;;;;;17.85;11.65;;;;;;;15.44;39.05;99570.80;1738923;82;21413;-59
2022/02/04 01:41:52;;;;;;;18.73;11.55;;;;;;;15.57;38.74;99569.23;1737463;82;21022;-62
2022/02/04 01:44:26;;;;;;;17.23;10.55;;;;;;;15.54;38.92;99574.95;1741200;82;21192;-61
2022/02/04 01:46:53;;;;;;;17.60;10.43;;;;;;;15.46;39.01;99573.48;1741084;82;20950;-67
2022/02/04 01:49:22;;;;;;;18.17;10.48;;;;;;;15.55;38.91;99579.16;1741749;82;21061;-62
2022/02/04 01:51:48;;;;;;;18.57;11.25;;;;;;;15.54;38.97;99579.68;1741223;82;21041;-67
2022/02/04 01:54:15;;;;;;;17.35;11.57;;;;;;;15.42;39.27;99578.91;1688201;82;21050;-62
2022/02/04 01:56:42;;;;;;;17.45;11.18;;;;;;;15.40;39.32;99577.02;1740836;82;21154;-62
2022/02/04 01:59:10;;;;;;;18.90;11.70;;;;;;;15.44;39.25;99576.05;1739947;82;20967;-62
2022/02/04 02:01:36;;;;;;;20.85;12.88;;;;;;;15.45;39.17;99580.26;1742054;82;21120;-61
2022/02/04 02:04:05;;;;;;;17.25;10.38;;;;;;;15.34;39.29;99580.55;1739440;81;20990;-62
2022/02/04 02:06:55;;;;;;;18.00;10.75;;;;;;;15.28;39.30;99584.13;1737603;82;21634;-61
2022/02/04 02:09:18;;;;;;;20.30;11.78;;;;;;;15.30;39.26;99576.30;1733853;82;21186;-59
2022/02/04 02:11:48;;;;;;;15.53;10.53;;;;;;;15.22;39.32;99575.32;1733404;82;20974;-62
2022/02/04 02:14:15;;;;;;;20.85;11.63;;;;;;;15.10;39.46;99574.53;1737698;82;21073;-62
2022/02/04 02:33:13;;;;;;;18.92;10.88;;;;;;;15.50;38.93;99573.81;1737554;82;22258;-62
2022/02/04 02:48:58;;;;;;;20.30;11.38;;;;;;;14.19;41.23;99579.16;1737215;82;22428;-59
2022/02/04 02:59:08;;;;;;;21.57;12.68;;;;;;;14.82;40.16;99578.64;1729210;82;21503;-62
2022/02/04 03:01:32;;;;;;;24.00;13.08;;;;;;;14.73;40.34;99579.98;1734148;82;21151;-61
2022/02/04 03:04:04;;;;;;;21.85;12.75;;;;;;;14.35;41.01;99594.77;1736120;82;21086;-60
2022/02/04 03:06:28;;;;;;;22.30;12.07;;;;;;;14.41;40.97;99594.39;1738268;82;21065;-60
2022/02/04 03:08:54;;;;;;;21.97;12.85;;;;;;;14.41;41.09;99597.02;1736614;82;20974;-60
2022/02/04 03:11:21;;;;;;;24.35;15.38;;;;;;;14.28;41.17;99601.92;1737957;82;21074;-61
2022/02/04 03:13:47;;;;;;;24.02;13.93;;;;;;;14.47;41.14;99598.73;1736655;82;21810;-66
2022/02/04 03:16:18;;;;;;;24.72;13.32;;;;;;;14.40;41.19;99605.91;1737539;82;21137;-60
2022/02/04 03:18:48;;;;;;;21.73;13.40;;;;;;;14.47;41.06;99602.17;1714209;82;21097;-60
2022/02/04 03:21:19;;;;;;;22.55;13.80;;;;;;;14.30;41.23;99602.00;1737663;82;21049;-59
2022/02/04 03:23:51;;;;;;;24.82;14.35;;;;;;;14.42;41.19;99599.92;1736886;82;20955;-59
2022/02/04 03:26:27;;;;;;;26.07;15.23;;;;;;;14.50;41.10;99602.25;1730864;82;21135;-60
2022/02/04 03:28:44;;;;;;;;;;;;;;;14.59;40.90;99600.92;1733957;82;21579;-59
2022/02/04 03:31:10;;;;;;;24.32;13.90;;;;;;;14.58;40.86;99597.98;1730182;82;20170;-65
2022/02/04 03:33:38;;;;;;;20.00;11.68;;;;;;;14.79;40.52;99597.46;1731547;82;20967;-59
2022/02/04 03:36:05;;;;;;;22.10;13.75;;;;;;;14.86;40.43;99610.48;1733507;82;21504;-63
2022/02/04 03:38:33;;;;;;;24.12;14.73;;;;;;;14.87;40.40;99608.66;1737869;82;21157;-60
2022/02/04 03:40:59;;;;;;;21.68;13.43;;;;;;;14.99;40.17;99606.83;1737172;82;21069;-60
2022/02/04 03:43:27;;;;;;;22.37;13.03;;;;;;;15.31;39.64;99609.41;1735261;82;20963;-60
2022/02/04 03:45:53;;;;;;;22.85;13.62;;;;;;;14.97;39.91;99612.31;1736639;82;21068;-66
2022/02/04 03:48:19;;;;;;;20.23;12.95;;;;;;;15.24;39.65;99610.03;1738052;82;21120;-59
2022/02/04 03:50:46;;;;;;;21.65;13.00;;;;;;;15.24;39.45;99607.41;1737093;82;21223;-60
2022/02/04 03:53:14;;;;;;;20.68;13.08;;;;;;;15.35;39.17;99607.64;1737559;82;21547;-61
2022/02/04 03:55:45;;;;;;;19.32;12.40;;;;;;;15.29;39.14;99607.51;1736954;82;20986;-62
2022/02/04 03:58:11;;;;;;;22.50;12.58;;;;;;;15.28;39.08;99603.30;1731355;82;20993;-60
2022/02/04 04:00:39;;;;;;;20.65;12.30;;;;;;;15.23;38.95;99604.51;1740011;79;21031;-59
2022/02/04 04:03:05;;;;;;;20.08;10.82;;;;;;;15.40;38.39;99602.48;1751767;81;21334;-59
2022/02/04 04:05:37;;;;;;;18.05;10.60;;;;;;;13.25;40.85;99619.23;1751536;81;21043;-67
2022/02/04 04:08:02;;;;;;;19.23;11.55;;;;;;;13.23;41.98;99617.35;1751863;81;21070;-63
2022/02/04 04:10:37;;;;;;;20.50;11.90;;;;;;;13.20;42.30;99621.67;1752775;81;21039;-60
2022/02/04 04:12:59;;;;;;;17.55;10.78;;;;;;;13.56;41.70;99623.58;1750524;79;20878;-61
2022/02/04 04:15:26;;;;;;;20.65;11.97;;;;;;;13.23;42.03;99623.07;1753026;80;21033;-59
2022/02/04 04:17:52;;;;;;;19.98;11.55;;;;;;;13.45;42.04;99623.47;1751808;80;20984;-59
2022/02/04 04:20:22;;;;;;;18.35;12.10;;;;;;;13.65;41.55;99622.77;1752333;81;21071;-60
2022/02/04 04:22:49;;;;;;;19.02;11.45;;;;;;;13.98;41.10;99626.80;1751457;80;21535;-59
2022/02/04 04:25:18;;;;;;;21.55;12.10;;;;;;;13.54;41.37;99632.14;1751491;81;21419;-62
2022/02/04 04:27:45;;;;;;;20.27;12.05;;;;;;;14.10;40.77;99624.55;1752789;80;21103;-66
2022/02/04 04:30:17;;;;;;;20.20;11.85;;;;;;;14.05;40.79;99620.49;1751411;81;21060;-65
2022/02/04 04:32:45;;;;;;;21.57;13.90;;;;;;;14.03;40.77;99619.10;1752310;81;22531;-60
2022/02/04 04:35:13;;;;;;;19.23;10.80;;;;;;;13.94;40.88;99625.65;1752185;81;21478;-60
2022/02/04 04:38:31;;;;;;;19.85;11.30;;;;;;;14.00;40.69;99627.40;1752825;80;21556;-60
2022/02/04 05:29:24;;;;;;;25.60;14.35;;;;;;;14.66;38.49;99659.33;1707784;82;21127;-62
2022/02/04 05:31:50;;;;;;;27.50;14.95;;;;;;;14.58;38.84;99660.94;1715750;81;21100;-62
2022/02/04 05:34:19;;;;;;;25.65;14.83;;;;;;;14.65;38.57;99664.27;1715899;82;21835;-63
2022/02/04 05:36:49;;;;;;;23.32;14.00;;;;;;;14.67;38.74;99656.19;1712566;81;21081;-67
2022/02/04 05:39:22;;;;;;;27.40;16.07;;;;;;;14.57;38.73;99659.34;1715443;81;21185;-63
2022/02/04 05:41:48;;;;;;;24.05;13.95;;;;;;;14.82;38.38;99664.44;1717315;81;21149;-66
2022/02/04 05:44:14;;;;;;;23.05;12.55;;;;;;;14.71;38.57;99665.20;1715337;82;21607;-64
2022/02/04 05:47:02;;;;;;;23.85;13.40;;;;;;;14.76;38.66;99660.08;1716305;82;21152;-67
2022/02/04 05:49:27;;;;;;;19.20;11.75;;;;;;;14.84;38.60;99658.44;1711720;82;21469;-67
2022/02/04 05:52:10;;;;;;;21.17;12.95;;;;;;;14.60;38.93;99655.77;1716107;82;21080;-64
2022/02/04 05:55:03;;;;;;;19.87;11.60;;;;;;;14.69;38.99;99652.30;1712472;82;20996;-68
2022/02/04 05:59:48;;;;;;;20.30;12.60;;;;;;;14.63;39.15;99662.91;1717367;81;21133;-66
2022/02/04 06:23:12;;;;;;;20.92;13.10;;;;;;;14.66;39.59;99663.27;1695607;81;21137;-65
2022/02/04 06:25:39;;;;;;;20.20;13.55;;;;;;;14.82;39.39;99664.44;1731659;81;22264;-66
2022/02/04 06:28:06;;;;;;;21.77;13.28;;;;;;;14.95;39.43;99663.42;1724046;82;22528;-66
2022/02/04 06:30:33;;;;;;;20.80;12.85;;;;;;;15.11;38.95;99660.13;1720178;82;21142;-67
2022/02/04 06:33:00;;;;;;;24.40;13.93;;;;;;;15.01;38.99;99662.02;1721287;82;20990;-68
2022/02/04 06:35:29;;;;;;;20.20;12.73;;;;;;;15.06;39.10;99663.95;1719167;82;21167;-70
2022/02/04 06:37:56;;;;;;;19.80;12.00;;;;;;;14.96;39.22;99661.08;1714795;82;21225;-65
2022/02/04 06:40:23;;;;;;;19.50;12.20;;;;;;;14.82;39.48;99665.75;1721403;82;21691;-65
2022/02/04 06:42:50;;;;;;;21.55;13.65;;;;;;;14.97;39.28;99660.08;1726959;82;21039;-69
2022/02/04 06:45:18;;;;;;;20.55;13.03;;;;;;;14.97;39.13;99665.33;1687490;83;21564;-66
2022/02/04 06:47:46;;;;;;;21.50;13.58;;;;;;;15.18;38.98;99665.27;1659949;84;21152;-66
2022/02/04 06:50:14;;;;;;;25.50;13.83;;;;;;;14.99;39.07;99672.44;1673490;84;21168;-65
2022/02/04 06:52:43;;;;;;;24.32;14.45;;;;;;;15.12;39.00;99670.14;1669184;84;21578;-65
2022/02/04 06:55:11;;;;;;;22.25;14.83;;;;;;;15.27;38.96;99665.23;1668041;85;21068;-65
2022/02/04 06:57:37;;;;;;;21.05;13.43;;;;;;;15.42;38.55;99668.20;1667193;84;21080;-67
2022/02/04 07:00:05;;;;;;;22.95;13.22;;;;;;;15.40;38.52;99667.63;1679407;84;21125;-65
2022/02/04 07:02:32;;;;;;;23.75;14.00;;;;;;;15.25;38.48;99666.77;1679024;84;21153;-65
2022/02/04 07:05:07;;;;;;;21.77;14.20;;;;;;;15.13;38.74;99663.86;1736375;82;21496;-65
2022/02/04 07:07:33;;;;;;;23.35;13.83;;;;;;;15.03;38.97;99664.40;1736673;82;21148;-68
2022/02/04 07:10:05;;;;;;;27.30;16.45;;;;;;;15.20;38.71;99666.66;1733675;82;21092;-65
2022/02/04 07:12:34;;;;;;;26.37;15.00;;;;;;;15.20;38.82;99668.48;1736173;81;21339;-67
2022/02/04 07:15:27;;;;;;;54.42;36.98;;;;;;;15.29;38.83;99669.22;1736862;82;21187;-64
2022/02/04 07:18:00;;;;;;;31.15;18.82;;;;;;;15.34;38.79;99669.84;1733594;82;21055;-68
2022/02/04 07:20:22;;;;;;;81.97;64.32;;;;;;;15.46;38.60;99668.03;1736626;81;21019;-63
2022/02/04 07:22:48;;;;;;;48.28;37.33;;;;;;;15.42;38.71;99666.07;1737197;82;21104;-63
2022/02/04 07:25:14;;;;;;;38.70;24.43;;;;;;;15.65;38.38;99666.11;1737100;82;20985;-70
2022/02/04 07:27:43;;;;;;;38.05;23.90;;;;;;;15.84;38.22;99664.66;1737034;82;21355;-63
2022/02/04 07:30:11;;;;;;;48.40;36.10;;;;;;;15.57;38.61;99665.91;1700228;83;21100;-64
2022/02/04 07:32:44;;;;;;;40.20;29.02;;;;;;;15.81;38.45;99658.02;1690604;84;21079;-63
2022/02/04 07:43:15;;;;;;;34.55;18.15;;;;;;;15.98;38.14;99654.94;1664632;84;21713;-63
2022/02/04 07:45:42;;;;;;;31.35;17.85;;;;;;;15.86;38.22;99659.95;1659965;85;21045;-64
2022/02/04 07:48:08;;;;;;;31.12;21.40;;;;;;;15.96;38.22;99658.33;1653761;84;21505;-64
2022/02/04 07:50:35;;;;;;;32.75;19.42;;;;;;;16.13;37.96;99668.10;1656435;84;21020;-66
2022/02/04 07:53:04;;;;;;;33.48;23.45;;;;;;;15.80;38.27;99659.86;1652551;84;21576;-65
2022/02/04 07:55:31;;;;;;;28.83;17.92;;;;;;;15.77;38.36;99657.69;1647855;86;21530;-64
2022/02/04 07:57:57;;;;;;;27.85;17.60;;;;;;;15.86;38.10;99656.80;1654127;84;21565;-66
2022/02/04 08:00:24;;;;;;;27.32;17.00;;;;;;;15.80;38.25;99659.86;1653318;86;21510;-64
2022/02/04 08:02:52;;;;;;;26.97;15.43;;;;;;;15.91;38.12;99656.09;1656098;85;20945;-68
2022/02/04 08:05:23;;;;;;;25.40;15.55;;;;;;;15.76;38.35;99659.24;1659566;84;21947;-64
2022/02/04 08:08:00;;;;;;;27.62;16.20;;;;;;;15.74;38.35;99662.08;1653478;84;21104;-64
2022/02/04 08:10:43;;;;;;;24.60;14.93;;;;;;;15.86;38.00;99665.20;1638809;85;21388;-65
2022/02/04 08:47:33;;;;;;;22.15;12.93;;;;;;;15.25;39.13;99670.70;1657596;85;20944;-66
2022/02/04 08:50:10;;;;;;;27.35;14.53;;;;;;;15.59;38.69;99660.42;1670967;83;21007;-64
2022/02/04 08:52:45;;;;;;;30.27;15.63;;;;;;;15.35;38.89;99666.20;1640211;85;21093;-63
2022/02/04 08:55:11;;;;;;;29.52;17.40;;;;;;;15.50;38.64;99663.92;1656745;84;21132;-64
2022/02/04 08:57:42;;;;;;;24.82;14.50;;;;;;;15.40;38.84;99660.27;1702226;82;21159;-64
2022/02/04 09:00:20;;;;;;;27.90;14.83;;;;;;;15.42;38.96;99658.19;1695367;83;21596;-62
2022/02/04 09:02:42;;;;;;;29.15;15.38;;;;;;;15.36;38.96;99659.92;1690262;82;21134;-62
2022/02/04 09:05:15;;;;;;;28.10;14.90;;;;;;;15.63;38.54;99654.19;1659203;84;21102;-61
2022/02/04 09:10:14;;;;;;;27.45;15.60;;;;;;;15.34;38.68;99648.83;1710432;82;21156;-65
2022/02/04 09:20:45;;;;;;;24.32;13.70;;;;;;;15.81;38.10;99634.37;1662963;84;21103;-64
2022/02/04 09:23:09;;;;;;;25.70;14.87;;;;;;;15.82;38.45;99635.95;1635472;86;21187;-62
2022/02/04 09:25:36;;;;;;;26.42;15.20;;;;;;;16.06;38.10;99641.94;1693246;82;20961;-65
2022/02/04 09:28:03;;;;;;;26.07;14.33;;;;;;;16.29;37.64;99627.93;1701447;82;21086;-62
2022/02/04 09:30:30;;;;;;;28.73;14.78;;;;;;;16.19;37.83;99630.37;1702437;82;20996;-62
2022/02/04 09:32:56;;;;;;;32.58;18.23;;;;;;;16.28;37.51;99629.73;1705005;82;22340;-63
2022/02/04 09:35:24;;;;;;;26.80;14.93;;;;;;;16.25;37.53;99632.04;1656746;84;21586;-63
2022/02/04 09:37:52;;;;;;;27.50;16.17;;;;;;;16.22;37.65;99626.75;1703417;82;20951;-67
2022/02/04 09:40:18;;;;;;;24.12;14.45;;;;;;;16.39;37.39;99625.98;1695332;82;21089;-62
2022/02/04 09:42:46;;;;;;;26.73;15.30;;;;;;;16.13;37.57;99631.30;1694551;83;21012;-62
2022/02/04 09:45:16;;;;;;;24.90;14.23;;;;;;;16.04;37.75;99632.19;1696884;83;21109;-64
2022/02/04 09:47:49;;;;;;;24.18;14.05;;;;;;;16.13;37.64;99633.41;1694667;82;21851;-65
2022/02/04 09:50:21;;;;;;;26.70;15.48;;;;;;;16.19;37.66;99629.05;1696630;83;21561;-65
2022/02/04 10:18:02;;;;;;;31.40;16.57;;;;;;;15.46;38.83;99627.32;1698391;83;20995;-65
2022/02/04 10:20:28;;;;;;;31.10;17.95;;;;;;;15.64;38.34;99625.56;1701550;83;21127;-64
2022/02/04 10:22:56;;;;;;;34.00;18.48;;;;;;;15.72;38.40;99625.23;1698367;82;21000;-65
2022/02/04 10:25:24;;;;;;;33.10;17.92;;;;;;;15.69;38.29;99626.52;1691965;83;21066;-61
2022/02/04 10:27:52;;;;;;;33.18;18.10;;;;;;;15.45;38.42;99628.33;1630191;85;21902;-65
2022/02/04 10:30:19;;;;;;;40.33;21.62;;;;;;;15.47;38.19;99628.91;1638310;86;21762;-62
2022/02/04 10:32:50;;;;;;;41.85;21.80;;;;;;;15.48;37.99;99628.39;1655126;84;21159;-64
2022/02/04 10:35:32;;;;;;;36.58;19.27;;;;;;;15.31;37.86;99623.05;1644648;86;25136;-61
2022/02/04 10:40:52;;;;;;;34.25;17.50;;;;;;;15.56;37.16;99617.53;1654125;84;21256;-64
2022/02/04 10:43:39;;;;;;;31.00;16.77;;;;;;;15.42;37.00;99618.31;1647221;85;21052;-62
2022/02/04 10:46:02;;;;;;;31.55;18.15;;;;;;;15.46;36.90;99618.13;1683578;83;21058;-61
2022/02/04 10:48:54;;;;;;;32.00;17.25;;;;;;;15.39;37.15;99620.08;1679743;83;21086;-60
2022/02/04 10:59:25;;;;;;;33.75;17.32;;;;;;;15.03;37.66;99622.41;1695939;83;21091;-62
2022/02/04 11:02:41;;;;;;;32.25;17.32;;;;;;;15.00;37.89;99614.98;1695813;83;21501;-62
2022/02/04 11:10:04;;;;;;;39.10;20.08;;;;;;;15.32;37.56;99618.88;1693566;83;20995;-63
2022/02/04 11:35:14;;;;;;;44.83;21.42;;;;;;;15.15;37.31;99621.09;1700255;83;21816;-60
2022/02/04 11:55:16;;;;;;;46.70;22.80;;;;;;;15.64;36.60;99627.67;1688452;83;21011;-65
2022/02/04 11:57:59;;;;;;;33.60;17.23;;;;;;;15.78;36.46;99630.37;1691627;82;22392;-66
2022/02/04 12:00:40;;;;;;;33.50;17.57;;;;;;;15.93;36.08;99628.56;1686274;82;21044;-68
2022/02/04 12:03:29;;;;;;;32.70;17.17;;;;;;;15.68;36.33;99629.36;1690528;83;21570;-63
2022/02/04 12:05:56;;;;;;;35.92;17.45;;;;;;;15.63;36.49;99623.98;1684005;83;21035;-65
2022/02/04 12:08:24;;;;;;;36.77;17.42;;;;;;;15.65;36.32;99625.38;1688182;83;21006;-63
2022/02/04 12:10:54;;;;;;;35.10;17.87;;;;;;;15.55;36.51;99627.24;1684872;83;21098;-64
2022/02/04 12:13:21;;;;;;;28.12;15.53;;;;;;;15.38;36.36;99632.10;1688904;83;21105;-63
2022/02/04 12:16:06;;;;;;;30.20;15.50;;;;;;;15.21;36.62;99631.49;1690325;83;21059;-62
2022/02/04 12:18:41;;;;;;;26.15;14.25;;;;;;;14.92;36.85;99629.23;1683974;83;21067;-61
2022/02/04 12:21:11;;;;;;;22.70;12.55;;;;;;;14.83;36.94;99630.09;1683783;83;21114;-61
2022/02/04 12:23:49;;;;;;;29.25;12.55;;;;;;;14.60;36.85;99640.54;1672103;83;21004;-65
2022/02/04 12:26:17;;;;;;;26.60;13.72;;;;;;;14.80;36.62;99641.55;1687069;84;21485;-64
2022/02/04 12:29:01;;;;;;;24.87;13.32;;;;;;;14.59;36.78;99640.26;1683587;83;21125;-59
2022/02/04 12:31:36;;;;;;;21.37;11.90;;;;;;;14.55;36.87;99641.22;1683832;83;21567;-61
2022/02/04 12:34:14;;;;;;;21.37;11.50;;;;;;;14.15;36.94;99639.60;1688648;83;21004;-62
2022/02/04 12:36:47;;;;;;;23.20;13.00;;;;;;;14.25;37.27;99639.88;1686598;83;20993;-61
2022/02/04 12:39:22;;;;;;;22.67;11.78;;;;;;;14.46;37.18;99640.41;1686380;83;20961;-61
2022/02/04 12:41:55;;;;;;;19.80;10.70;;;;;;;14.72;36.53;99641.36;1685482;82;21576;-61
2022/02/04 12:44:27;;;;;;;17.60;10.35;;;;;;;14.97;36.11;99635.14;1681919;84;21538;-61
2022/02/04 12:46:56;;;;;;;20.10;10.55;;;;;;;14.91;36.22;99642.59;1685380;82;21035;-65
2022/02/04 12:49:29;;;;;;;18.82;10.90;;;;;;;14.87;36.13;99641.45;1687704;82;21030;-62
2022/02/04 12:54:32;;;;;;;;;;;;;;;14.78;36.17;99660.16;1678433;84;21162;-61
2022/02/04 13:08:14;;;;;;;19.48;9.70;;;;;;;14.55;36.40;99654.84;1667040;82;21170;-70
2022/02/04 13:10:29;;;;;;;21.42;11.03;;;;;;;14.47;36.45;99665.59;1659672;83;20999;-72
2022/02/04 13:13:08;;;;;;;19.55;11.10;;;;;;;14.41;36.52;99659.95;1683918;82;21498;-63
2022/02/04 13:15:36;;;;;;;22.50;12.47;;;;;;;14.62;36.39;99655.53;1683560;84;21063;-63
2022/02/04 13:18:10;;;;;;;17.48;11.38;;;;;;;14.50;36.58;99660.73;1687656;84;21141;-64
2022/02/04 13:20:40;;;;;;;19.95;11.68;;;;;;;14.56;36.47;99666.41;1686378;82;21111;-62
2022/02/04 13:23:11;;;;;;;20.90;12.27;;;;;;;14.54;36.46;99665.83;1680812;82;21075;-67
2022/02/04 13:25:45;;;;;;;21.60;11.95;;;;;;;14.50;36.54;99669.12;1689982;84;20976;-73
2022/02/04 13:28:34;;;;;;;21.45;12.50;;;;;;;14.35;36.72;99672.91;1682709;82;20975;-64
2022/02/04 13:31:11;;;;;;;21.17;12.18;;;;;;;14.47;36.66;99666.42;1685211;84;21499;-63
2022/02/04 13:33:44;;;;;;;24.32;13.15;;;;;;;14.59;36.49;99671.73;1674065;83;21838;-61
2022/02/04 13:38:50;;;;;;;24.65;14.45;;;;;;;14.52;36.47;99674.44;1672137;84;21023;-61
2022/02/04 13:41:24;;;;;;;23.65;13.72;;;;;;;14.53;36.50;99678.66;1670995;84;21032;-66
2022/02/04 13:44:02;;;;;;;22.73;12.75;;;;;;;14.57;36.45;99673.25;1684440;82;21133;-75
2022/02/04 13:46:22;;;;;;;22.02;12.88;;;;;;;14.64;36.35;99679.72;1683630;83;39407;-63
2022/02/04 13:51:52;;;;;;;21.70;12.55;;;;;;;14.54;36.45;99686.80;1698297;83;21046;-62
2022/02/04 13:57:19;;;;;;;20.55;12.47;;;;;;;14.51;36.55;99686.48;1674175;84;21560;-73
2022/02/04 13:59:50;;;;;;;21.33;12.10;;;;;;;14.51;36.61;99682.55;1673328;84;21180;-67
2022/02/04 14:02:20;;;;;;;20.02;12.82;;;;;;;14.38;36.62;99685.30;1656700;85;20972;-64
2022/02/04 14:04:58;;;;;;;21.60;12.30;;;;;;;14.32;36.45;99683.86;1694429;83;21008;-74
2022/02/04 14:07:42;;;;;;;19.67;11.75;;;;;;;14.29;36.37;99691.36;1675505;84;21100;-65
2022/02/04 14:10:32;;;;;;;20.05;11.78;;;;;;;14.32;36.35;99696.17;1668812;84;21136;-65
2022/02/04 14:13:02;;;;;;;22.82;13.10;;;;;;;14.30;36.45;99699.00;1637953;87;21613;-69
2022/02/04 14:15:32;;;;;;;23.95;14.38;;;;;;;14.41;36.34;99697.97;1636857;86;21063;-63
2022/02/04 14:18:18;;;;;;;20.90;12.50;;;;;;;14.35;36.32;99699.64;1638223;86;21141;-74
2022/02/04 14:20:31;;;;;;;22.77;13.13;;;;;;;14.35;36.29;99701.75;1663765;84;22361;-62
2022/02/04 14:22:58;;;;;;;23.52;13.13;;;;;;;14.29;36.43;99701.34;1673180;84;21006;-65
2022/02/04 14:25:24;;;;;;;22.20;13.22;;;;;;;14.31;36.35;99713.70;1670859;84;21150;-64
2022/02/04 14:27:55;;;;;;;24.52;14.83;;;;;;;14.38;36.31;99712.83;1642314;87;21018;-66
2022/02/04 14:30:25;;;;;;;23.57;14.43;;;;;;;14.28;36.52;99719.41;1641106;85;21053;-75
2022/02/04 14:32:56;;;;;;;28.85;16.45;;;;;;;14.19;36.68;99719.91;1655401;84;21703;-75
2022/02/04 14:35:29;;;;;;;30.40;16.85;;;;;;;14.13;36.75;99724.22;1696117;82;21114;-62
2022/02/04 14:54:13;;;;;;;31.25;17.73;;;;;;;13.61;37.71;99738.14;1716998;82;21055;-62
2022/02/04 15:01:56;;;;;;;32.45;18.20;;;;;;;13.67;37.59;99757.42;1719483;83;21134;-64
2022/02/04 15:04:35;;;;;;;36.35;19.48;;;;;;;13.90;37.21;99754.18;1717306;82;21199;-73
2022/02/04 15:06:58;;;;;;;32.40;17.80;;;;;;;13.60;37.48;99754.88;1718599;82;22140;-64
2022/02/04 15:09:20;;;;;;;35.70;19.20;;;;;;;14.16;37.10;99757.84;1715203;83;21024;-74
2022/02/04 15:11:47;;;;;;;34.90;19.02;;;;;;;14.22;36.82;99763.53;1720162;82;20991;-64
2022/02/04 15:14:16;;;;;;;35.03;18.95;;;;;;;13.99;37.19;99764.17;1716719;82;21026;-78
2022/02/04 15:16:44;;;;;;;32.75;17.48;;;;;;;14.23;36.68;99764.33;1715377;82;21152;-65
2022/02/04 15:19:11;;;;;;;33.50;18.27;;;;;;;13.34;37.42;99762.44;1719291;82;20995;-63
2022/02/04 15:21:42;;;;;;;32.40;18.37;;;;;;;13.19;37.80;99772.38;1718254;82;21048;-65
2022/02/04 15:24:10;;;;;;;37.13;19.65;;;;;;;13.33;37.58;99766.88;1716844;82;21081;-62
2022/02/04 15:26:37;;;;;;;32.78;17.50;;;;;;;13.31;37.42;99768.89;1719837;82;21524;-62
2022/02/04 15:29:13;;;;;;;41.63;20.23;;;;;;;13.24;37.56;99772.06;1697946;82;21142;-62
2022/02/04 15:34:09;;;;;;;40.90;22.58;;;;;;;13.22;37.42;99778.48;1721534;82;21090;-62
2022/02/04 15:36:43;;;;;;;35.05;19.62;;;;;;;13.07;37.50;99781.42;1717839;82;21068;-62
2022/02/04 15:39:08;;;;;;;31.20;18.70;;;;;;;13.14;37.57;99783.46;1719338;82;21584;-63
2022/02/04 15:41:37;;;;;;;33.80;19.57;;;;;;;13.20;37.60;99785.75;1716545;82;21826;-82
2022/02/04 15:49:24;;;;;;;33.88;19.40;;;;;;;13.03;37.87;99803.75;1711325;82;20122;-82
2022/02/04 16:02:01;;;;;;;37.38;19.45;;;;;;;12.99;38.18;99810.42;1711591;82;20917;-75
2022/02/04 16:06:46;;;;;;;36.95;21.62;;;;;;;13.15;37.90;99813.88;1669830;85;21196;-64
2022/02/04 16:09:14;;;;;;;39.60;21.05;;;;;;;12.88;38.39;99821.06;1713222;83;20945;-82
2022/02/04 16:11:54;;;;;;;39.98;21.37;;;;;;;12.89;38.45;99818.73;1710337;82;21107;-66
2022/02/04 16:14:24;;;;;;;39.23;21.57;;;;;;;12.90;38.43;99821.64;1704042;82;21052;-66
2022/02/04 16:16:50;;;;;;;40.20;22.17;;;;;;;13.10;38.28;99826.77;1672777;84;20957;-62
2022/02/04 16:22:09;;;;;;;36.88;21.27;;;;;;;13.06;38.31;99834.23;1707138;83;21731;-65
2022/02/04 16:29:50;;;;;;;42.43;21.70;;;;;;;13.18;38.32;99834.36;1706790;83;21607;-66
2022/02/04 16:32:17;;;;;;;56.00;27.35;;;;;;;13.36;38.07;99842.34;1702429;82;21560;-64
2022/02/04 16:34:52;;;;;;;41.80;23.30;;;;;;;13.35;37.77;99843.36;1705913;82;21021;-76
2022/02/04 16:37:18;;;;;;;38.48;20.02;;;;;;;12.98;37.95;99844.94;1667519;84;22609;-76
2022/02/04 16:39:46;;;;;;;33.30;20.48;;;;;;;13.37;37.51;99842.66;1707845;83;21098;-65
2022/02/04 16:42:15;;;;;;;35.33;19.90;;;;;;;13.44;37.36;99850.96;1709872;81;21124;-66
2022/02/04 16:44:42;;;;;;;36.28;20.75;;;;;;;13.41;37.34;99846.14;1716991;81;21169;-63
2022/02/04 16:47:09;;;;;;;34.35;18.85;;;;;;;13.42;37.11;99853.00;1713483;82;21035;-63
2022/02/04 16:49:37;;;;;;;37.48;20.70;;;;;;;13.40;37.09;99845.34;1713560;82;21030;-64
2022/02/04 16:52:06;;;;;;;32.78;19.57;;;;;;;13.45;37.06;99849.94;1712619;82;21012;-69
2022/02/04 16:54:37;;;;;;;32.98;18.70;;;;;;;13.31;37.07;99849.23;1710473;82;21124;-74
2022/02/04 16:57:05;;;;;;;30.48;17.30;;;;;;;13.29;37.14;99848.63;1719504;81;21179;-68
2022/02/04 16:59:31;;;;;;;32.30;19.00;;;;;;;13.30;36.92;99856.30;1708744;82;21063;-64
2022/02/04 17:01:59;;;;;;;38.02;20.20;;;;;;;13.36;36.89;99853.33;1712968;82;21102;-64
2022/02/04 17:04:25;;;;;;;37.70;20.92;;;;;;;13.47;36.76;99862.33;1715745;82;21007;-64
2022/02/04 17:07:05;;;;;;;34.73;19.80;;;;;;;13.56;36.64;99859.73;1716001;82;20939;-71
2022/02/04 17:09:35;;;;;;;40.05;21.02;;;;;;;13.48;36.63;99858.17;1716876;82;21178;-72
2022/02/04 17:12:05;;;;;;;33.83;19.85;;;;;;;13.46;36.53;99856.80;1716270;82;21080;-66
2022/02/04 17:14:34;;;;;;;34.00;18.37;;;;;;;13.35;36.57;99849.11;1716431;82;21074;-67
2022/02/04 17:17:04;;;;;;;32.38;18.73;;;;;;;13.30;36.72;99854.98;1712080;82;21086;-71
2022/02/04 17:19:44;;;;;;;35.70;19.80;;;;;;;13.30;36.70;99851.06;1714549;81;20967;-70
2022/02/04 17:22:04;;;;;;;35.65;19.60;;;;;;;13.29;36.78;99853.87;1716435;82;21167;-66
2022/02/04 17:24:32;;;;;;;37.70;20.30;;;;;;;13.29;36.85;99859.91;1708688;82;21106;-73
2022/02/04 17:26:59;;;;;;;50.78;29.80;;;;;;;13.40;36.69;99868.91;1704611;82;21868;-65
2022/02/04 17:29:30;;;;;;;38.70;21.70;;;;;;;13.46;36.60;99875.12;1702759;82;20996;-66
2022/02/04 17:31:58;;;;;;;38.65;20.17;;;;;;;13.49;36.51;99871.59;1700267;82;21060;-68
2022/02/04 17:34:25;;;;;;;42.90;23.83;;;;;;;13.42;36.66;99872.64;1662108;84;21691;-71
2022/02/04 17:36:51;;;;;;;33.98;19.32;;;;;;;13.35;36.71;99873.47;1718162;82;21176;-66